createdAt,value
2018-11-21T00:00:34.165Z,83.90
2018-11-21T00:03:02.459Z,83.79
2018-11-21T00:05:30.663Z,83.85
2018-11-21T00:07:59.452Z,83.17
2018-11-21T00:10:27.618Z,83.12
2018-11-21T00:12:56.919Z,82.27
2018-11-21T00:15:25.444Z,82.80
2018-11-21T00:17:53.615Z,82.31
2018-11-21T00:20:21.878Z,81.75
2018-11-21T00:22:50.335Z,80.57
2018-11-21T00:25:18.566Z,80.91
2018-11-21T00:27:46.716Z,81.24
2018-11-21T00:30:16.033Z,80.66
2018-11-21T00:32:44.211Z,81.89
2018-11-21T00:35:12.367Z,81.48
2018-11-21T00:37:40.582Z,81.30
2018-11-21T00:40:10.693Z,82.65
2018-11-21T00:42:38.847Z,83.87
2018-11-21T00:45:08.143Z,83.06
2018-11-21T00:47:36.298Z,85.60
2018-11-21T00:50:05.507Z,85.81
2018-11-21T00:52:33.672Z,84.22
2018-11-21T00:55:02.411Z,82.71
2018-11-21T00:57:30.101Z,82.21
2018-11-21T00:59:58.577Z,82.01
2018-11-21T01:02:26.737Z,81.50
2018-11-21T01:04:55.071Z,81.12
2018-11-21T01:07:23.532Z,81.60
2018-11-21T01:09:51.712Z,81.49
2018-11-21T01:12:19.867Z,81.79
2018-11-21T01:14:48.028Z,82.19
2018-11-21T01:17:16.232Z,81.49
2018-11-21T01:19:44.376Z,81.94
2018-11-21T01:22:12.895Z,81.25
2018-11-21T01:24:41.330Z,81.18
2018-11-21T01:27:09.478Z,81.36
2018-11-21T01:29:38.048Z,81.68
2018-11-21T01:32:06.211Z,81.68
2018-11-21T01:34:34.478Z,81.76
2018-11-21T01:37:02.635Z,81.11
2018-11-21T01:39:30.788Z,81.06
2018-11-21T01:41:58.954Z,80.98
2018-11-21T01:44:27.501Z,81.16
2018-11-21T01:46:56.069Z,80.87
2018-11-21T01:49:24.607Z,80.96
2018-11-21T01:51:53.176Z,81.14
2018-11-21T01:54:21.360Z,81.06
2018-11-21T01:56:49.547Z,80.95
2018-11-21T01:59:17.716Z,81.39
2018-11-21T02:01:45.882Z,81.55
2018-11-21T02:04:14.049Z,81.80
2018-11-21T02:06:42.254Z,81.34
2018-11-21T02:09:11.776Z,81.26
2018-11-21T02:11:39.944Z,81.25
2018-11-21T02:14:08.315Z,82.08
2018-11-21T02:16:36.687Z,81.78
2018-11-21T02:19:05.836Z,81.44
2018-11-21T02:21:34.051Z,81.49
2018-11-21T02:24:02.585Z,81.89
2018-11-21T02:26:30.753Z,82.00
2018-11-21T02:28:58.910Z,81.36
2018-11-21T02:31:27.096Z,81.35
2018-11-21T02:33:55.261Z,82.30
2018-11-21T02:36:23.415Z,82.02
2018-11-21T02:38:52.016Z,81.91
2018-11-21T02:41:20.175Z,82.01
2018-11-21T02:43:48.468Z,81.87
2018-11-21T02:46:16.904Z,82.03
2018-11-21T02:48:45.408Z,82.12
2018-11-21T02:51:13.976Z,83.25
2018-11-21T02:53:42.137Z,82.98
2018-11-21T02:56:10.706Z,83.15
2018-11-21T02:58:38.899Z,83.26
2018-11-21T03:01:07.067Z,83.06
2018-11-21T03:03:35.334Z,83.27
2018-11-21T03:06:03.524Z,83.47
2018-11-21T03:08:31.997Z,82.11
2018-11-21T03:11:00.165Z,82.07
2018-11-21T03:13:28.606Z,82.54
2018-11-21T03:15:56.475Z,82.25
2018-11-21T03:18:24.626Z,82.45
2018-11-21T03:20:52.806Z,82.15
2018-11-21T03:23:20.965Z,83.15
2018-11-21T03:25:49.117Z,82.61
2018-11-21T03:28:17.283Z,82.33
2018-11-21T03:30:45.495Z,83.31
2018-11-21T03:33:13.694Z,83.39
2018-11-21T03:35:42.319Z,82.27
2018-11-21T03:38:10.496Z,83.02
2018-11-21T03:40:38.659Z,82.36
2018-11-21T03:43:06.835Z,82.72
2018-11-21T03:45:35.330Z,82.68
2018-11-21T03:48:03.597Z,82.47
2018-11-21T03:50:31.748Z,83.14
2018-11-21T03:53:00.219Z,83.48
2018-11-21T03:55:28.392Z,84.39
2018-11-21T03:57:56.962Z,84.16
2018-11-21T04:00:25.118Z,84.93
2018-11-21T04:02:53.750Z,84.56
2018-11-21T04:05:21.904Z,85.54
2018-11-21T04:07:50.107Z,85.42
2018-11-21T04:10:18.307Z,85.09
2018-11-21T04:12:46.456Z,85.21
2018-11-21T04:15:14.750Z,84.87
2018-11-21T04:17:43.018Z,85.76
2018-11-21T04:20:11.304Z,86.70
2018-11-21T04:22:40.393Z,86.70
2018-11-21T04:25:10.100Z,86.56
2018-11-21T04:27:38.525Z,86.51
2018-11-21T04:30:08.255Z,86.47
2018-11-21T04:32:36.402Z,86.66
2018-11-21T04:35:05.004Z,86.31
2018-11-21T04:37:33.444Z,85.67
2018-11-21T04:40:02.016Z,85.68
2018-11-21T04:42:30.576Z,86.15
2018-11-21T04:44:58.741Z,85.71
2018-11-21T04:47:27.288Z,86.16
2018-11-21T04:49:55.446Z,86.49
2018-11-21T04:52:23.596Z,87.94
2018-11-21T04:54:52.628Z,87.44
2018-11-21T04:57:20.846Z,87.58
2018-11-21T04:59:49.451Z,86.04
2018-11-21T05:02:17.596Z,84.44
2018-11-21T05:04:45.736Z,84.86
2018-11-21T05:07:13.954Z,85.26
2018-11-21T05:09:42.113Z,85.47
2018-11-21T05:12:10.302Z,84.78
2018-11-21T05:14:39.262Z,84.92
2018-11-21T05:17:07.359Z,85.20
2018-11-21T05:19:35.884Z,85.01
2018-11-21T05:22:04.125Z,84.83
2018-11-21T05:24:33.857Z,84.25
2018-11-21T05:27:02.021Z,84.67
2018-11-21T05:29:30.168Z,84.70
2018-11-21T05:31:58.639Z,84.85
2018-11-21T05:34:26.808Z,84.88
2018-11-21T05:36:55.050Z,84.54
2018-11-21T05:39:23.280Z,84.32
2018-11-21T05:41:51.433Z,84.66
2018-11-21T05:44:19.904Z,84.51
2018-11-21T05:46:50.534Z,84.50
2018-11-21T05:49:16.581Z,84.65
2018-11-21T05:51:44.845Z,84.86
2018-11-21T05:54:13.040Z,85.08
2018-11-21T05:56:41.206Z,84.24
2018-11-21T05:59:10.679Z,85.05
2018-11-21T06:01:38.186Z,85.80
2018-11-21T06:04:06.415Z,86.74
2018-11-21T06:06:34.613Z,87.72
2018-11-21T06:09:03.081Z,87.89
2018-11-21T06:11:34.337Z,88.57
2018-11-21T06:14:02.497Z,87.80
2018-11-21T06:16:30.911Z,87.48
2018-11-21T06:18:59.070Z,87.43
2018-11-21T06:21:27.343Z,86.68
2018-11-21T06:23:55.534Z,86.66
2018-11-21T06:26:23.784Z,86.85
2018-11-21T06:28:52.245Z,86.51
2018-11-21T06:31:20.978Z,87.59
2018-11-21T06:33:49.133Z,89.01
2018-11-21T06:36:17.726Z,89.38
2018-11-21T06:38:46.004Z,89.54
2018-11-21T06:41:14.146Z,89.76
2018-11-21T06:43:42.324Z,88.64
2018-11-21T06:46:10.513Z,88.98
2018-11-21T06:48:38.659Z,88.99
2018-11-21T06:51:06.985Z,88.46
2018-11-21T06:53:35.145Z,88.30
2018-11-21T06:56:03.303Z,88.53
2018-11-21T06:58:32.001Z,88.19
2018-11-21T07:01:00.504Z,88.65
2018-11-21T07:03:28.664Z,89.90
2018-11-21T07:05:56.837Z,90.59
2018-11-21T07:08:25.094Z,90.37
2018-11-21T07:10:53.251Z,89.96
2018-11-21T07:13:21.432Z,90.11
2018-11-21T07:15:49.574Z,90.03
2018-11-21T07:18:17.795Z,89.25
2018-11-21T07:20:45.967Z,89.09
2018-11-21T07:23:14.214Z,88.78
2018-11-21T07:25:42.369Z,88.11
2018-11-21T07:28:13.197Z,88.48
2018-11-21T07:30:38.854Z,88.39
2018-11-21T07:33:07.026Z,87.49
2018-11-21T07:35:35.927Z,87.49
2018-11-21T07:38:04.089Z,87.36
2018-11-21T07:40:32.257Z,87.30
2018-11-21T07:43:01.577Z,86.80
2018-11-21T07:45:29.828Z,88.27
2018-11-21T07:47:57.984Z,88.27
2018-11-21T07:50:26.180Z,88.52
2018-11-21T07:52:54.314Z,88.48
2018-11-21T07:55:22.473Z,88.62
2018-11-21T07:57:53.434Z,88.64
2018-11-21T08:01:07.441Z,88.54
2018-11-21T08:03:44.196Z,87.74
2018-11-21T08:06:23.961Z,87.83
2018-11-21T08:09:11.084Z,87.55
2018-11-21T08:11:48.923Z,87.38
2018-11-21T08:14:35.470Z,87.41
2018-11-21T08:17:11.377Z,87.20
2018-11-21T08:19:47.491Z,87.04
2018-11-21T08:22:38.693Z,86.92
2018-11-21T08:25:37.987Z,86.53
2018-11-21T08:28:43.388Z,86.60
2018-11-21T08:31:11.692Z,86.11
2018-11-21T08:33:39.810Z,85.31
2018-11-21T08:36:08.499Z,84.90
2018-11-21T08:38:36.787Z,83.95
2018-11-21T08:41:05.470Z,83.12
2018-11-21T08:43:33.616Z,82.40
2018-11-21T08:46:02.916Z,83.02
2018-11-21T08:48:31.443Z,82.44
2018-11-21T08:50:59.583Z,81.35
2018-11-21T08:53:27.726Z,81.03
2018-11-21T08:55:56.199Z,80.01
2018-11-21T08:58:24.374Z,79.85
2018-11-21T09:00:52.509Z,80.96
2018-11-21T09:03:20.643Z,82.92
2018-11-21T09:05:49.427Z,84.46
2018-11-21T09:08:17.567Z,83.82
2018-11-21T09:10:45.731Z,83.70
2018-11-21T09:13:14.280Z,84.02
2018-11-21T09:15:42.416Z,83.04
2018-11-21T09:18:10.571Z,82.33
2018-11-21T09:20:39.251Z,81.65
2018-11-21T09:23:07.464Z,81.53
2018-11-21T09:25:35.911Z,81.02
2018-11-21T09:28:05.075Z,80.25
2018-11-21T09:30:33.286Z,79.09
2018-11-21T09:33:01.586Z,78.60
2018-11-21T09:35:30.124Z,78.90
2018-11-21T09:37:58.912Z,78.48
2018-11-21T09:40:27.105Z,78.20
2018-11-21T09:42:56.256Z,78.12
2018-11-21T09:45:25.016Z,77.11
2018-11-21T09:47:53.172Z,77.24
2018-11-21T09:50:25.978Z,77.24
2018-11-21T09:52:54.112Z,77.99
2018-11-21T09:55:22.617Z,77.73
2018-11-21T09:57:51.058Z,78.66
2018-11-21T10:00:56.156Z,79.91
2018-11-21T10:03:32.304Z,79.91
2018-11-21T10:06:21.914Z,79.78
2018-11-21T10:08:57.638Z,80.12
2018-11-21T10:11:25.887Z,80.20
2018-11-21T10:13:54.345Z,79.40
2018-11-21T10:16:22.519Z,79.54
2018-11-21T10:18:52.333Z,78.60
2018-11-21T10:21:24.765Z,78.78
2018-11-21T10:23:52.887Z,78.47
2018-11-21T10:26:21.054Z,79.36
2018-11-21T10:28:50.043Z,77.88
2018-11-21T10:31:18.217Z,78.55
2018-11-21T10:33:46.356Z,77.06
2018-11-21T10:36:15.427Z,77.70
2018-11-21T10:38:43.651Z,77.29
2018-11-21T10:41:11.781Z,78.41
2018-11-21T10:43:39.979Z,78.97
2018-11-21T10:46:08.301Z,79.49
2018-11-21T10:48:36.468Z,78.26
2018-11-21T10:51:05.584Z,77.88
2018-11-21T10:53:33.831Z,77.43
2018-11-21T10:56:02.333Z,77.47
2018-11-21T10:58:30.611Z,77.37
2018-11-21T11:01:16.320Z,76.91
2018-11-21T11:03:48.151Z,77.64
2018-11-21T11:06:33.841Z,78.02
2018-11-21T11:09:21.415Z,77.58
2018-11-21T11:12:15.009Z,77.16
2018-11-21T11:15:11.270Z,77.45
2018-11-21T11:17:59.576Z,78.61
2018-11-21T11:20:44.491Z,78.24
2018-11-21T11:23:30.540Z,76.77
2018-11-21T11:26:27.111Z,77.18
2018-11-21T11:29:13.104Z,76.81
2018-11-21T11:31:59.608Z,76.62
2018-11-21T11:34:49.921Z,76.83
2018-11-21T11:37:35.918Z,76.76
2018-11-21T11:40:27.186Z,75.96
2018-11-21T11:43:17.405Z,76.72
2018-11-21T11:46:15.358Z,75.91
2018-11-21T11:49:21.391Z,76.09
2018-11-21T11:52:07.901Z,75.72
2018-11-21T11:55:10.893Z,76.02
2018-11-21T11:58:10.255Z,74.93
2018-11-21T12:01:03.274Z,75.14
2018-11-21T12:03:46.420Z,75.18
2018-11-21T12:06:32.827Z,74.65
2018-11-21T12:09:19.331Z,75.11
2018-11-21T12:12:12.761Z,73.78
2018-11-21T12:14:59.277Z,72.76
2018-11-21T12:17:49.562Z,73.31
2018-11-21T12:20:31.383Z,71.17
2018-11-21T12:23:17.317Z,71.10
2018-11-21T12:26:12.592Z,72.23
2018-11-21T12:29:17.948Z,71.84
2018-11-21T12:32:06.793Z,72.76
2018-11-21T12:34:53.036Z,71.07
2018-11-21T12:37:39.652Z,72.75
2018-11-21T12:40:36.129Z,71.69
2018-11-21T12:43:22.416Z,72.11
2018-11-21T12:46:08.444Z,72.23
2018-11-21T12:48:56.866Z,72.01
2018-11-21T12:51:45.380Z,74.59
2018-11-21T12:54:28.832Z,72.45
2018-11-21T12:57:08.666Z,73.30
2018-11-21T12:59:50.208Z,74.22
2018-11-21T13:02:36.421Z,74.54
2018-11-21T13:05:22.572Z,74.16
2018-11-21T13:08:08.824Z,73.96
2018-11-21T13:11:04.750Z,73.61
2018-11-21T13:13:50.907Z,73.27
2018-11-21T13:16:47.744Z,73.64
2018-11-21T13:19:33.955Z,73.57
2018-11-21T13:22:12.736Z,74.01
2018-11-21T13:25:02.743Z,73.04
2018-11-21T13:28:03.854Z,74.19
2018-11-21T13:30:51.112Z,73.45
2018-11-21T13:33:25.724Z,73.66
2018-11-21T13:36:09.014Z,73.99
2018-11-21T13:39:11.384Z,73.73
2018-11-21T13:41:53.422Z,73.80
2018-11-21T13:44:41.078Z,73.23
2018-11-21T13:47:27.165Z,73.58
2018-11-21T13:50:14.779Z,73.91
2018-11-21T13:52:58.992Z,73.93
2018-11-21T13:55:27.146Z,74.61
2018-11-21T13:57:55.292Z,74.29
2018-11-21T14:00:23.530Z,74.24
2018-11-21T14:02:51.664Z,74.60
2018-11-21T14:05:19.815Z,73.63
2018-11-21T14:07:48.035Z,74.40
2018-11-21T14:10:16.162Z,74.43
2018-11-21T14:12:44.359Z,74.50
2018-11-21T14:15:13.248Z,74.71
2018-11-21T14:17:41.424Z,74.74
2018-11-21T14:20:11.266Z,74.31
2018-11-21T14:22:39.525Z,75.38
2018-11-21T14:25:09.242Z,75.30
2018-11-21T14:27:37.704Z,74.71
2018-11-21T14:30:11.683Z,75.22
2018-11-21T14:32:40.927Z,74.56
2018-11-21T14:35:10.794Z,75.10
2018-11-21T14:37:39.300Z,74.90
2018-11-21T14:40:10.397Z,74.67
2018-11-21T14:42:38.953Z,75.02
2018-11-21T14:45:09.528Z,75.49
2018-11-21T14:47:38.040Z,74.91
2018-11-21T14:50:17.133Z,75.52
2018-11-21T14:52:45.313Z,74.99
2018-11-21T14:55:13.690Z,74.66
2018-11-21T14:57:41.862Z,74.68
2018-11-21T15:00:15.726Z,74.95
2018-11-21T15:02:44.106Z,75.46
2018-11-21T15:05:12.843Z,74.71
2018-11-21T15:07:41.789Z,75.04
2018-11-21T15:10:10.768Z,75.65
2018-11-21T15:12:39.252Z,75.45
2018-11-21T15:15:10.092Z,75.39
2018-11-21T15:17:38.334Z,75.41
2018-11-21T15:20:09.166Z,75.75
2018-11-21T15:22:37.316Z,76.09
2018-11-21T15:25:07.209Z,76.15
2018-11-21T15:27:36.208Z,76.58
2018-11-21T15:30:07.552Z,76.65
2018-11-21T15:32:35.694Z,76.55
2018-11-21T15:35:04.136Z,76.65
2018-11-21T15:37:32.275Z,76.93
2018-11-21T15:40:00.403Z,77.28
2018-11-21T15:42:28.730Z,77.50
2018-11-21T15:44:56.954Z,77.44
2018-11-21T15:47:25.099Z,77.59
2018-11-21T15:49:53.428Z,77.89
2018-11-21T15:52:21.564Z,77.63
2018-11-21T15:54:49.771Z,77.65
2018-11-21T15:57:18.108Z,77.53
2018-11-21T15:59:46.283Z,78.41
2018-11-21T16:02:15.264Z,77.80
2018-11-21T16:04:47.963Z,78.12
2018-11-21T16:07:11.787Z,78.13
2018-11-21T16:09:39.918Z,77.77
2018-11-21T16:12:08.082Z,77.70
2018-11-21T16:14:36.599Z,77.41
2018-11-21T16:17:04.836Z,77.69
2018-11-21T16:19:33.025Z,77.41
2018-11-21T16:22:01.922Z,77.57
2018-11-21T16:24:30.062Z,77.09
2018-11-21T16:26:58.192Z,77.50
2018-11-21T16:29:26.348Z,77.76
2018-11-21T16:31:54.475Z,77.37
2018-11-21T16:34:22.615Z,77.68
2018-11-21T16:36:50.997Z,77.45
2018-11-21T16:39:19.131Z,77.85
2018-11-21T16:41:47.257Z,77.45
2018-11-21T16:44:15.471Z,77.26
2018-11-21T16:46:43.614Z,78.00
2018-11-21T16:49:11.753Z,77.22
2018-11-21T16:51:39.951Z,77.38
2018-11-21T16:54:08.420Z,77.26
2018-11-21T16:56:36.915Z,77.39
2018-11-21T16:59:05.156Z,78.13
2018-11-21T17:01:33.308Z,77.60
2018-11-21T17:04:01.434Z,77.58
2018-11-21T17:06:29.787Z,77.62
2018-11-21T17:08:57.907Z,77.83
2018-11-21T17:11:26.067Z,78.26
2018-11-21T17:13:54.600Z,78.02
2018-11-21T17:16:23.350Z,77.88
2018-11-21T17:18:51.843Z,77.64
2018-11-21T17:21:20.018Z,77.69
2018-11-21T17:23:48.139Z,77.67
2018-11-21T17:26:16.294Z,78.06
2018-11-21T17:28:44.706Z,78.13
2018-11-21T17:31:13.195Z,77.88
2018-11-21T17:33:42.443Z,78.57
2018-11-21T17:36:10.869Z,77.99
2018-11-21T17:38:39.451Z,78.64
2018-11-21T17:41:07.665Z,78.49
2018-11-21T17:43:35.818Z,79.40
2018-11-21T17:46:04.310Z,79.01
2018-11-21T17:48:33.010Z,78.51
2018-11-21T17:51:01.147Z,79.25
2018-11-21T17:53:29.326Z,79.07
2018-11-21T17:55:57.456Z,79.83
2018-11-21T17:58:26.068Z,79.42
2018-11-21T18:00:54.240Z,79.36
2018-11-21T18:03:23.328Z,79.62
2018-11-21T18:05:50.596Z,79.28
2018-11-21T18:08:18.759Z,79.24
2018-11-21T18:10:46.869Z,79.15
2018-11-21T18:13:14.986Z,79.09
2018-11-21T18:15:43.177Z,79.42
2018-11-21T18:18:11.358Z,79.40
2018-11-21T18:20:39.484Z,80.13
2018-11-21T18:23:07.752Z,80.08
2018-11-21T18:25:37.972Z,79.25
2018-11-21T18:28:06.557Z,78.85
2018-11-21T18:30:34.721Z,79.93
2018-11-21T18:33:02.865Z,79.67
2018-11-21T18:35:35.461Z,79.57
2018-11-21T18:37:59.662Z,80.10
2018-11-21T18:40:29.263Z,79.60
2018-11-21T18:42:57.721Z,79.62
2018-11-21T18:45:32.035Z,79.87
2018-11-21T18:48:00.163Z,79.85
2018-11-21T18:50:28.305Z,79.95
2018-11-21T18:52:57.629Z,79.57
2018-11-21T18:55:28.052Z,79.90
2018-11-21T18:58:29.129Z,79.58
2018-11-21T19:00:57.267Z,79.73
2018-11-21T19:03:25.544Z,79.90
2018-11-21T19:05:54.556Z,79.66
2018-11-21T19:08:22.771Z,79.32
2018-11-21T19:10:51.982Z,79.31
2018-11-21T19:13:20.516Z,79.76
2018-11-21T19:15:48.840Z,79.59
2018-11-21T19:18:16.969Z,79.20
2018-11-21T19:20:45.794Z,79.75
2018-11-21T19:23:13.927Z,79.49
2018-11-21T19:25:42.050Z,79.46
2018-11-21T19:28:11.197Z,79.45
2018-11-21T19:30:39.333Z,79.94
2018-11-21T19:33:07.561Z,79.65
2018-11-21T19:35:35.757Z,79.57
2018-11-21T19:38:03.931Z,80.28
2018-11-21T19:40:32.055Z,79.87
2018-11-21T19:43:00.492Z,80.43
2018-11-21T19:45:28.655Z,80.29
2018-11-21T19:47:56.787Z,79.71
2018-11-21T19:50:25.721Z,81.18
2018-11-21T19:52:55.284Z,79.63
2018-11-21T19:55:25.343Z,80.01
2018-11-21T19:57:53.481Z,79.52
2018-11-21T20:00:23.138Z,79.43
2018-11-21T20:02:52.029Z,79.69
2018-11-21T20:05:20.345Z,80.30
2018-11-21T20:07:48.929Z,79.36
2018-11-21T20:10:17.976Z,79.57
2018-11-21T20:13:23.443Z,79.40
2018-11-21T20:15:51.671Z,80.21
2018-11-21T20:18:19.845Z,80.04
2018-11-21T20:20:48.358Z,79.96
2018-11-21T20:23:16.487Z,80.71
2018-11-21T20:25:44.959Z,79.78
2018-11-21T20:28:13.101Z,79.95
2018-11-21T20:30:41.768Z,79.85
2018-11-21T20:33:12.006Z,80.14
2018-11-21T20:35:40.230Z,80.24
2018-11-21T20:38:09.052Z,79.92
2018-11-21T20:40:38.245Z,80.25
2018-11-21T20:43:06.372Z,80.81
2018-11-21T20:45:34.615Z,80.58
2018-11-21T20:48:03.138Z,80.40
2018-11-21T20:50:31.310Z,80.38
2018-11-21T20:52:59.521Z,80.72
2018-11-21T20:55:29.437Z,80.95
2018-11-21T20:57:57.970Z,80.88
2018-11-21T21:00:27.625Z,80.42
2018-11-21T21:02:55.752Z,80.42
2018-11-21T21:05:24.927Z,81.19
2018-11-21T21:07:53.058Z,80.53
2018-11-21T21:10:25.347Z,80.63
2018-11-21T21:12:53.505Z,79.93
2018-11-21T21:15:21.782Z,78.43
2018-11-21T21:17:50.784Z,79.07
2018-11-21T21:20:20.491Z,78.71
2018-11-21T21:22:50.407Z,78.37
2018-11-21T21:25:20.211Z,78.29
2018-11-21T21:27:48.462Z,78.96
2018-11-21T21:30:18.191Z,78.38
2018-11-21T21:32:47.153Z,77.53
2018-11-21T21:35:16.282Z,78.04
2018-11-21T21:37:44.668Z,79.16
2018-11-21T21:40:20.382Z,79.28
2018-11-21T21:42:45.411Z,79.56
2018-11-21T21:45:15.247Z,80.68
2018-11-21T21:47:43.392Z,80.37
2018-11-21T21:50:12.485Z,79.53
2018-11-21T21:52:41.173Z,79.10
2018-11-21T21:55:10.445Z,79.22
2018-11-21T21:57:38.590Z,78.72
2018-11-21T22:00:14.174Z,78.08
2018-11-21T22:02:42.337Z,78.24
2018-11-21T22:05:11.289Z,79.17
2018-11-21T22:07:39.425Z,79.27
2018-11-21T22:10:09.252Z,79.74
2018-11-21T22:12:37.536Z,79.78
2018-11-21T22:15:14.389Z,79.61
2018-11-21T22:17:42.533Z,79.63
2018-11-21T22:20:10.678Z,79.75
2018-11-21T22:22:38.815Z,79.68
2018-11-21T22:25:07.352Z,80.09
2018-11-21T22:27:35.526Z,79.88
2018-11-21T22:30:04.385Z,78.91
2018-11-21T22:32:32.512Z,79.20
2018-11-21T22:35:01.106Z,79.49
2018-11-21T22:37:29.546Z,79.16
2018-11-21T22:39:57.732Z,79.37
2018-11-21T22:42:26.324Z,79.70
2018-11-21T22:44:54.463Z,79.79
2018-11-21T22:47:22.664Z,79.45
2018-11-21T22:49:50.850Z,79.60
2018-11-21T22:52:19.005Z,80.21
2018-11-21T22:54:47.139Z,80.17
2018-11-21T22:57:15.306Z,80.09
2018-11-21T22:59:43.544Z,79.45
2018-11-21T23:02:11.706Z,79.73
2018-11-21T23:04:39.895Z,79.07
2018-11-21T23:07:08.051Z,79.18
2018-11-21T23:09:36.265Z,79.23
2018-11-21T23:12:04.391Z,79.35
2018-11-21T23:14:32.876Z,78.98
2018-11-21T23:17:01.070Z,78.88
2018-11-21T23:19:29.206Z,79.71
2018-11-21T23:21:57.340Z,79.08
2018-11-21T23:24:25.478Z,79.07
2018-11-21T23:26:53.646Z,78.98
2018-11-21T23:29:21.791Z,79.84
2018-11-21T23:31:49.999Z,79.59
2018-11-21T23:34:18.197Z,80.08
2018-11-21T23:36:47.084Z,78.54
2018-11-21T23:39:15.221Z,78.15
2018-11-21T23:41:43.384Z,78.16
2018-11-21T23:44:11.858Z,78.31
2018-11-21T23:46:40.047Z,78.30
2018-11-21T23:49:08.227Z,78.10
2018-11-21T23:51:36.781Z,78.01
2018-11-21T23:54:05.041Z,78.77
2018-11-21T23:56:33.221Z,78.94
2018-11-21T23:59:01.356Z,78.20
